sensor_id;sensor_type;location;lat;lon;timestamp;temperature;humidity
49901;DHT22;35789;48.414;12.768;2023-09-19T00:00:00;15.7;99.9
49901;DHT22;35789;48.414;12.768;2023-09-19T00:05:00;15.7;99.9
49901;DHT22;35789;48.414;12.768;2023-09-19T00:10:00;15.7;99.9
49901;DHT22;35789;48.414;12.768;2023-09-19T00:15:00;15.7;99.9
49901;DHT22;35789;48.414;12.768;2023-09-19T00:20:00;15.6;99.9
49901;DHT22;35789;48.414;12.768;2023-09-19T00:25:00;15.6;99.9
49901;DHT22;35789;48.414;12.768;2023-09-19T00:30:00;15.6;99.9
49901;DHT22;35789;48.414;12.768;2023-09-19T00:35:00;15.5;99.9
49901;DHT22;35789;48.414;12.768;2023-09-19T00:40:00;15.5;99.9
49901;DHT22;35789;48.414;12.768;2023-09-19T00:45:00;15.5;99.9
49901;DHT22;35789;48.414;12.768;2023-09-19T00:50:00;15.5;99.9
49901;DHT22;35789;48.414;12.768;2023-09-19T00:55:00;15.5;99.9
49901;DHT22;35789;48.414;12.768;2023-09-19T01:00:00;15.4;99.9
49901;DHT22;35789;48.414;12.768;2023-09-19T01:05:00;15.4;99.9
49901;DHT22;35789;48.414;12.768;2023-09-19T01:10:00;15.3;99.9
49901;DHT22;35789;48.414;12.768;2023-09-19T01:15:02;15.3;99.9
49901;DHT22;35789;48.414;12.768;2023-09-19T01:20:07;15.3;99.9
49901;DHT22;35789;48.414;12.768;2023-09-19T01:25:07;15.3;99.9
49901;DHT22;35789;48.414;12.768;2023-09-19T01:30:06;15.3;99.9
49901;DHT22;35789;48.414;12.768;2023-09-19T01:35:00;15.3;99.9
49901;DHT22;35789;48.414;12.768;2023-09-19T01:40:01;15.3;99.9
49901;DHT22;35789;48.414;12.768;2023-09-19T01:45:03;15.2;99.9
49901;DHT22;35789;48.414;12.768;2023-09-19T01:50:02;15.2;99.9
49901;DHT22;35789;48.414;12.768;2023-09-19T01:55:02;15.2;99.9
49901;DHT22;35789;48.414;12.768;2023-09-19T02:00:01;15.2;99.9
49901;DHT22;35789;48.414;12.768;2023-09-19T02:05:00;15.3;99.9
49901;DHT22;35789;48.414;12.768;2023-09-19T02:10:00;15.3;99.9
49901;DHT22;35789;48.414;12.768;2023-09-19T02:15:00;15.3;99.9
49901;DHT22;35789;48.414;12.768;2023-09-19T02:20:00;15.3;99.9
49901;DHT22;35789;48.414;12.768;2023-09-19T02:25:00;15.3;99.9
49901;DHT22;35789;48.414;12.768;2023-09-19T02:30:00;15.3;99.9
49901;DHT22;35789;48.414;12.768;2023-09-19T02:35:00;15.3;99.9
49901;DHT22;35789;48.414;12.768;2023-09-19T02:40:00;15.3;99.9
49901;DHT22;35789;48.414;12.768;2023-09-19T02:45:00;15.3;99.9
49901;DHT22;35789;48.414;12.768;2023-09-19T02:50:00;15.3;99.9
49901;DHT22;35789;48.414;12.768;2023-09-19T02:55:00;15.3;99.9
49901;DHT22;35789;48.414;12.768;2023-09-19T03:00:00;15.3;99.9
49901;DHT22;35789;48.414;12.768;2023-09-19T03:05:00;15.3;99.9
49901;DHT22;35789;48.414;12.768;2023-09-19T03:10:00;15.3;99.9
49901;DHT22;35789;48.414;12.768;2023-09-19T03:15:00;15.3;99.9
49901;DHT22;35789;48.414;12.768;2023-09-19T03:20:00;15.3;99.9
49901;DHT22;35789;48.414;12.768;2023-09-19T03:25:00;15.3;99.9
49901;DHT22;35789;48.414;12.768;2023-09-19T03:30:00;15.3;99.9
49901;DHT22;35789;48.414;12.768;2023-09-19T03:35:00;15.3;99.9
49901;DHT22;35789;48.414;12.768;2023-09-19T03:40:00;15.3;99.9
49901;DHT22;35789;48.414;12.768;2023-09-19T03:45:00;15.3;99.9
49901;DHT22;35789;48.414;12.768;2023-09-19T03:50:00;15.3;99.9
49901;DHT22;35789;48.414;12.768;2023-09-19T03:55:00;15.3;99.9
49901;DHT22;35789;48.414;12.768;2023-09-19T04:00:00;15.3;99.9
49901;DHT22;35789;48.414;12.768;2023-09-19T04:05:00;15.3;99.9
49901;DHT22;35789;48.414;12.768;2023-09-19T04:10:00;15.3;99.9
49901;DHT22;35789;48.414;12.768;2023-09-19T04:15:00;15.3;99.9
49901;DHT22;35789;48.414;12.768;2023-09-19T04:20:00;15.2;99.9
49901;DHT22;35789;48.414;12.768;2023-09-19T04:25:00;15.2;99.9
49901;DHT22;35789;48.414;12.768;2023-09-19T04:30:00;15.3;99.9
49901;DHT22;35789;48.414;12.768;2023-09-19T04:35:00;15.3;99.9
49901;DHT22;35789;48.414;12.768;2023-09-19T04:40:00;15.2;99.9
49901;DHT22;35789;48.414;12.768;2023-09-19T04:45:00;15.2;99.9
49901;DHT22;35789;48.414;12.768;2023-09-19T04:50:00;15.2;99.9
49901;DHT22;35789;48.414;12.768;2023-09-19T04:55:00;15.2;99.9
49901;DHT22;35789;48.414;12.768;2023-09-19T05:00:00;15.1;99.9
49901;DHT22;35789;48.414;12.768;2023-09-19T05:05:00;15.1;99.9
49901;DHT22;35789;48.414;12.768;2023-09-19T05:10:00;15.1;99.9
49901;DHT22;35789;48.414;12.768;2023-09-19T05:15:00;15.1;99.9
49901;DHT22;35789;48.414;12.768;2023-09-19T05:20:00;15.0;99.9
49901;DHT22;35789;48.414;12.768;2023-09-19T05:25:00;15.1;99.9
49901;DHT22;35789;48.414;12.768;2023-09-19T05:30:00;15.0;99.9
49901;DHT22;35789;48.414;12.768;2023-09-19T05:35:00;15.0;99.9
49901;DHT22;35789;48.414;12.768;2023-09-19T05:40:00;15.0;99.9
49901;DHT22;35789;48.414;12.768;2023-09-19T05:45:00;15.1;99.9
49901;DHT22;35789;48.414;12.768;2023-09-19T05:50:00;15.1;99.9
49901;DHT22;35789;48.414;12.768;2023-09-19T05:55:00;15.3;99.9
49901;DHT22;35789;48.414;12.768;2023-09-19T06:00:00;15.3;99.9
49901;DHT22;35789;48.414;12.768;2023-09-19T06:05:00;15.5;99.9
49901;DHT22;35789;48.414;12.768;2023-09-19T06:10:00;15.5;99.9
49901;DHT22;35789;48.414;12.768;2023-09-19T06:15:00;15.6;99.9
49901;DHT22;35789;48.414;12.768;2023-09-19T06:20:00;15.6;99.9
49901;DHT22;35789;48.414;12.768;2023-09-19T06:25:00;15.6;99.9
49901;DHT22;35789;48.414;12.768;2023-09-19T06:30:00;15.7;99.9
49901;DHT22;35789;48.414;12.768;2023-09-19T06:35:00;15.7;99.9
49901;DHT22;35789;48.414;12.768;2023-09-19T06:40:00;15.8;99.9
49901;DHT22;35789;48.414;12.768;2023-09-19T06:45:00;15.9;99.9
49901;DHT22;35789;48.414;12.768;2023-09-19T06:50:00;15.9;99.9
49901;DHT22;35789;48.414;12.768;2023-09-19T06:55:00;15.9;99.9
49901;DHT22;35789;48.414;12.768;2023-09-19T07:00:00;16.0;99.9
49901;DHT22;35789;48.414;12.768;2023-09-19T07:05:00;16.1;99.9
49901;DHT22;35789;48.414;12.768;2023-09-19T07:10:00;16.2;99.9
49901;DHT22;35789;48.414;12.768;2023-09-19T07:15:00;16.3;99.9
49901;DHT22;35789;48.414;12.768;2023-09-19T07:20:00;16.3;99.9
49901;DHT22;35789;48.414;12.768;2023-09-19T07:25:00;16.5;99.9
49901;DHT22;35789;48.414;12.768;2023-09-19T07:30:00;16.7;99.9
49901;DHT22;35789;48.414;12.768;2023-09-19T07:35:00;16.8;99.9
49901;DHT22;35789;48.414;12.768;2023-09-19T07:40:00;16.9;99.9
49901;DHT22;35789;48.414;12.768;2023-09-19T07:45:00;17.0;99.9
49901;DHT22;35789;48.414;12.768;2023-09-19T07:50:00;16.9;99.9
49901;DHT22;35789;48.414;12.768;2023-09-19T07:55:00;16.9;99.9
49901;DHT22;35789;48.414;12.768;2023-09-19T08:00:00;17.0;99.9
49901;DHT22;35789;48.414;12.768;2023-09-19T08:05:00;16.7;99.9
49901;DHT22;35789;48.414;12.768;2023-09-19T08:10:00;16.8;99.9
49901;DHT22;35789;48.414;12.768;2023-09-19T08:15:00;17.0;99.9
49901;DHT22;35789;48.414;12.768;2023-09-19T08:20:00;17.1;99.9
49901;DHT22;35789;48.414;12.768;2023-09-19T08:25:00;17.0;99.9
49901;DHT22;35789;48.414;12.768;2023-09-19T08:30:00;17.4;99.9
49901;DHT22;35789;48.414;12.768;2023-09-19T08:35:00;17.6;99.9
49901;DHT22;35789;48.414;12.768;2023-09-19T08:40:00;17.8;99.9
49901;DHT22;35789;48.414;12.768;2023-09-19T08:45:00;18.1;99.6
49901;DHT22;35789;48.414;12.768;2023-09-19T08:50:01;18.2;99.0
49901;DHT22;35789;48.414;12.768;2023-09-19T08:55:01;18.4;98.7
49901;DHT22;35789;48.414;12.768;2023-09-19T09:00:00;18.4;98.2
49901;DHT22;35789;48.414;12.768;2023-09-19T09:05:00;18.4;99.0
49901;DHT22;35789;48.414;12.768;2023-09-19T09:10:02;18.4;98.2
49901;DHT22;35789;48.414;12.768;2023-09-19T09:15:00;18.5;97.9
49901;DHT22;35789;48.414;12.768;2023-09-19T09:20:00;18.4;97.8
49901;DHT22;35789;48.414;12.768;2023-09-19T09:25:00;18.2;98.9
49901;DHT22;35789;48.414;12.768;2023-09-19T09:30:00;18.4;98.3
49901;DHT22;35789;48.414;12.768;2023-09-19T09:35:00;18.5;99.8
49901;DHT22;35789;48.414;12.768;2023-09-19T09:40:00;18.7;98.1
49901;DHT22;35789;48.414;12.768;2023-09-19T09:50:00;18.9;97.0
49901;DHT22;35789;48.414;12.768;2023-09-19T09:55:00;18.9;96.6
49901;DHT22;35789;48.414;12.768;2023-09-19T10:00:00;19.2;97.9
49901;DHT22;35789;48.414;12.768;2023-09-19T10:05:03;19.6;97.0
49901;DHT22;35789;48.414;12.768;2023-09-19T10:10:01;19.7;95.1
49901;DHT22;35789;48.414;12.768;2023-09-19T10:15:00;19.8;95.7
49901;DHT22;35789;48.414;12.768;2023-09-19T10:20:00;19.7;95.1
49901;DHT22;35789;48.414;12.768;2023-09-19T10:25:00;19.7;95.6
49901;DHT22;35789;48.414;12.768;2023-09-19T10:30:00;19.6;95.3
49901;DHT22;35789;48.414;12.768;2023-09-19T10:35:00;19.4;94.6
49901;DHT22;35789;48.414;12.768;2023-09-19T10:40:01;19.3;95.4
49901;DHT22;35789;48.414;12.768;2023-09-19T10:45:00;19.3;94.7
49901;DHT22;35789;48.414;12.768;2023-09-19T10:50:00;19.5;94.7
49901;DHT22;35789;48.414;12.768;2023-09-19T10:55:00;19.8;94.1
49901;DHT22;35789;48.414;12.768;2023-09-19T11:00:00;19.7;94.8
49901;DHT22;35789;48.414;12.768;2023-09-19T11:05:10;19.6;94.3
49901;DHT22;35789;48.414;12.768;2023-09-19T11:10:00;19.6;94.2
49901;DHT22;35789;48.414;12.768;2023-09-19T11:15:00;19.4;95.6
49901;DHT22;35789;48.414;12.768;2023-09-19T11:35:06;19.7;95.3
49901;DHT22;35789;48.414;12.768;2023-09-19T11:40:08;19.3;95.9
49901;DHT22;35789;48.414;12.768;2023-09-19T11:45:00;18.8;98.1
49901;DHT22;35789;48.414;12.768;2023-09-19T11:50:00;18.4;98.7
49901;DHT22;35789;48.414;12.768;2023-09-19T11:55:00;18.4;99.5
49901;DHT22;35789;48.414;12.768;2023-09-19T12:00:00;18.6;99.9
49901;DHT22;35789;48.414;12.768;2023-09-19T12:05:00;18.6;99.4
49901;DHT22;35789;48.414;12.768;2023-09-19T12:10:02;18.6;99.6
49901;DHT22;35789;48.414;12.768;2023-09-19T12:15:00;18.7;99.4
49901;DHT22;35789;48.414;12.768;2023-09-19T12:20:00;18.8;98.9
49901;DHT22;35789;48.414;12.768;2023-09-19T12:25:05;19.0;98.9
49901;DHT22;35789;48.414;12.768;2023-09-19T12:30:00;19.3;99.1
49901;DHT22;35789;48.414;12.768;2023-09-19T12:35:00;19.4;96.8
49901;DHT22;35789;48.414;12.768;2023-09-19T12:40:04;19.4;97.2
49901;DHT22;35789;48.414;12.768;2023-09-19T12:45:00;19.5;96.2
49901;DHT22;35789;48.414;12.768;2023-09-19T12:50:08;19.8;96.7
49901;DHT22;35789;48.414;12.768;2023-09-19T12:55:00;19.8;96.9
49901;DHT22;35789;48.414;12.768;2023-09-19T13:00:00;19.8;96.1
49901;DHT22;35789;48.414;12.768;2023-09-19T13:05:00;20.0;94.1
49901;DHT22;35789;48.414;12.768;2023-09-19T13:10:03;19.9;95.1
49901;DHT22;35789;48.414;12.768;2023-09-19T13:15:07;19.8;94.2
49901;DHT22;35789;48.414;12.768;2023-09-19T13:20:00;19.8;94.9
49901;DHT22;35789;48.414;12.768;2023-09-19T13:25:00;19.7;94.2
49901;DHT22;35789;48.414;12.768;2023-09-19T13:30:00;19.7;95.0
49901;DHT22;35789;48.414;12.768;2023-09-19T13:35:00;19.7;94.1
49901;DHT22;35789;48.414;12.768;2023-09-19T13:40:00;19.7;94.7
49901;DHT22;35789;48.414;12.768;2023-09-19T13:45:00;19.7;94.5
49901;DHT22;35789;48.414;12.768;2023-09-19T13:50:01;19.6;94.4
49901;DHT22;35789;48.414;12.768;2023-09-19T13:55:00;19.5;94.4
49901;DHT22;35789;48.414;12.768;2023-09-19T14:00:00;19.4;95.2
49901;DHT22;35789;48.414;12.768;2023-09-19T14:05:00;19.4;95.8
49901;DHT22;35789;48.414;12.768;2023-09-19T14:10:00;19.5;94.1
49901;DHT22;35789;48.414;12.768;2023-09-19T14:15:00;19.6;94.2
49901;DHT22;35789;48.414;12.768;2023-09-19T14:20:00;19.6;94.7
49901;DHT22;35789;48.414;12.768;2023-09-19T14:25:00;19.6;93.5
49901;DHT22;35789;48.414;12.768;2023-09-19T14:30:00;19.7;93.9
49901;DHT22;35789;48.414;12.768;2023-09-19T14:35:00;19.7;93.1
49901;DHT22;35789;48.414;12.768;2023-09-19T14:40:00;19.7;93.5
49901;DHT22;35789;48.414;12.768;2023-09-19T14:45:00;19.5;94.7
49901;DHT22;35789;48.414;12.768;2023-09-19T14:50:00;19.4;94.7
49901;DHT22;35789;48.414;12.768;2023-09-19T14:55:00;19.3;95.6
49901;DHT22;35789;48.414;12.768;2023-09-19T15:00:00;19.3;95.3
49901;DHT22;35789;48.414;12.768;2023-09-19T15:05:00;19.4;95.0
49901;DHT22;35789;48.414;12.768;2023-09-19T15:10:00;19.3;95.1
49901;DHT22;35789;48.414;12.768;2023-09-19T15:15:01;19.4;94.7
49901;DHT22;35789;48.414;12.768;2023-09-19T15:20:00;19.5;93.4
49901;DHT22;35789;48.414;12.768;2023-09-19T15:25:00;19.5;93.9
49901;DHT22;35789;48.414;12.768;2023-09-19T15:30:00;19.4;94.0
49901;DHT22;35789;48.414;12.768;2023-09-19T15:35:00;19.4;94.7
49901;DHT22;35789;48.414;12.768;2023-09-19T15:40:00;19.3;94.7
49901;DHT22;35789;48.414;12.768;2023-09-19T15:45:00;19.2;94.7
49901;DHT22;35789;48.414;12.768;2023-09-19T15:50:00;19.0;95.2
49901;DHT22;35789;48.414;12.768;2023-09-19T15:55:01;19.0;95.5
49901;DHT22;35789;48.414;12.768;2023-09-19T16:00:00;18.9;95.6
49901;DHT22;35789;48.414;12.768;2023-09-19T16:05:00;18.8;95.8
49901;DHT22;35789;48.414;12.768;2023-09-19T16:10:02;18.7;96.0
49901;DHT22;35789;48.414;12.768;2023-09-19T16:15:00;18.6;96.3
49901;DHT22;35789;48.414;12.768;2023-09-19T16:20:00;18.5;96.5
49901;DHT22;35789;48.414;12.768;2023-09-19T16:25:00;18.4;96.8
49901;DHT22;35789;48.414;12.768;2023-09-19T16:30:00;18.2;96.8
49901;DHT22;35789;48.414;12.768;2023-09-19T16:35:00;18.1;97.1
49901;DHT22;35789;48.414;12.768;2023-09-19T16:40:00;18.0;97.7
49901;DHT22;35789;48.414;12.768;2023-09-19T16:45:00;17.9;98.4
49901;DHT22;35789;48.414;12.768;2023-09-19T16:50:00;17.9;98.6
49901;DHT22;35789;48.414;12.768;2023-09-19T16:55:00;17.8;98.7
49901;DHT22;35789;48.414;12.768;2023-09-19T17:00:00;17.7;98.5
49901;DHT22;35789;48.414;12.768;2023-09-19T17:05:00;17.6;99.3
49901;DHT22;35789;48.414;12.768;2023-09-19T17:10:00;17.6;99.0
49901;DHT22;35789;48.414;12.768;2023-09-19T17:15:00;17.4;99.6
49901;DHT22;35789;48.414;12.768;2023-09-19T17:20:00;17.4;99.7
49901;DHT22;35789;48.414;12.768;2023-09-19T17:25:00;17.3;99.8
49901;DHT22;35789;48.414;12.768;2023-09-19T17:30:00;17.1;99.9
49901;DHT22;35789;48.414;12.768;2023-09-19T17:35:00;17.0;99.9
49901;DHT22;35789;48.414;12.768;2023-09-19T17:40:00;16.9;99.8
49901;DHT22;35789;48.414;12.768;2023-09-19T17:45:00;16.8;99.9
49901;DHT22;35789;48.414;12.768;2023-09-19T17:50:00;16.7;99.9
49901;DHT22;35789;48.414;12.768;2023-09-19T17:55:00;16.6;99.9
49901;DHT22;35789;48.414;12.768;2023-09-19T18:00:00;16.5;99.9
49901;DHT22;35789;48.414;12.768;2023-09-19T18:05:00;16.4;99.9
49901;DHT22;35789;48.414;12.768;2023-09-19T18:10:00;16.3;99.9
49901;DHT22;35789;48.414;12.768;2023-09-19T18:15:00;16.3;99.9
49901;DHT22;35789;48.414;12.768;2023-09-19T18:20:00;16.1;99.9
49901;DHT22;35789;48.414;12.768;2023-09-19T18:25:00;16.1;99.9
49901;DHT22;35789;48.414;12.768;2023-09-19T18:30:00;16.0;99.9
49901;DHT22;35789;48.414;12.768;2023-09-19T18:35:00;15.9;99.9
49901;DHT22;35789;48.414;12.768;2023-09-19T18:40:00;15.8;99.9
49901;DHT22;35789;48.414;12.768;2023-09-19T18:45:00;15.8;99.9
49901;DHT22;35789;48.414;12.768;2023-09-19T18:50:01;15.7;99.9
49901;DHT22;35789;48.414;12.768;2023-09-19T18:55:00;15.6;99.9
49901;DHT22;35789;48.414;12.768;2023-09-19T19:00:00;15.5;99.9
49901;DHT22;35789;48.414;12.768;2023-09-19T19:05:00;15.4;99.9
49901;DHT22;35789;48.414;12.768;2023-09-19T19:10:00;15.4;99.9
49901;DHT22;35789;48.414;12.768;2023-09-19T19:15:00;15.3;99.9
49901;DHT22;35789;48.414;12.768;2023-09-19T19:20:00;15.3;99.9
49901;DHT22;35789;48.414;12.768;2023-09-19T19:25:00;15.2;99.9
49901;DHT22;35789;48.414;12.768;2023-09-19T19:30:00;15.1;99.9
49901;DHT22;35789;48.414;12.768;2023-09-19T19:35:00;15.0;99.9
49901;DHT22;35789;48.414;12.768;2023-09-19T19:40:00;15.0;99.9
49901;DHT22;35789;48.414;12.768;2023-09-19T19:45:00;15.0;99.9
49901;DHT22;35789;48.414;12.768;2023-09-19T19:50:00;15.0;99.9
49901;DHT22;35789;48.414;12.768;2023-09-19T19:55:00;14.9;99.9
49901;DHT22;35789;48.414;12.768;2023-09-19T20:00:00;14.8;99.9
49901;DHT22;35789;48.414;12.768;2023-09-19T20:05:00;14.7;99.9
49901;DHT22;35789;48.414;12.768;2023-09-19T20:10:00;14.7;99.9
49901;DHT22;35789;48.414;12.768;2023-09-19T20:15:00;14.6;99.9
49901;DHT22;35789;48.414;12.768;2023-09-19T20:20:00;14.5;99.9
49901;DHT22;35789;48.414;12.768;2023-09-19T20:25:00;14.5;99.9
49901;DHT22;35789;48.414;12.768;2023-09-19T20:30:00;14.4;99.9
49901;DHT22;35789;48.414;12.768;2023-09-19T20:35:00;14.4;99.9
49901;DHT22;35789;48.414;12.768;2023-09-19T20:40:00;14.2;99.9
49901;DHT22;35789;48.414;12.768;2023-09-19T20:45:00;14.2;99.9
49901;DHT22;35789;48.414;12.768;2023-09-19T20:50:00;14.2;99.9
49901;DHT22;35789;48.414;12.768;2023-09-19T20:55:00;14.3;99.9
49901;DHT22;35789;48.414;12.768;2023-09-19T21:00:00;14.2;99.9
49901;DHT22;35789;48.414;12.768;2023-09-19T21:05:00;14.1;99.9
49901;DHT22;35789;48.414;12.768;2023-09-19T21:10:00;14.1;99.9
49901;DHT22;35789;48.414;12.768;2023-09-19T21:15:00;14.1;99.9
49901;DHT22;35789;48.414;12.768;2023-09-19T21:20:00;14.1;99.9
49901;DHT22;35789;48.414;12.768;2023-09-19T21:25:00;14.0;99.9
49901;DHT22;35789;48.414;12.768;2023-09-19T21:30:00;13.9;99.9
49901;DHT22;35789;48.414;12.768;2023-09-19T21:35:00;13.9;99.9
49901;DHT22;35789;48.414;12.768;2023-09-19T21:40:00;13.8;99.9
49901;DHT22;35789;48.414;12.768;2023-09-19T21:45:00;13.8;99.9
49901;DHT22;35789;48.414;12.768;2023-09-19T21:50:00;13.8;99.9
49901;DHT22;35789;48.414;12.768;2023-09-19T21:55:00;13.7;99.9
49901;DHT22;35789;48.414;12.768;2023-09-19T22:00:00;13.7;99.9
49901;DHT22;35789;48.414;12.768;2023-09-19T22:05:00;13.6;99.9
49901;DHT22;35789;48.414;12.768;2023-09-19T22:10:00;13.5;99.9
49901;DHT22;35789;48.414;12.768;2023-09-19T22:15:00;13.5;99.9
49901;DHT22;35789;48.414;12.768;2023-09-19T22:20:00;13.4;99.9
49901;DHT22;35789;48.414;12.768;2023-09-19T22:25:00;13.3;99.9
49901;DHT22;35789;48.414;12.768;2023-09-19T22:30:00;13.2;99.9
49901;DHT22;35789;48.414;12.768;2023-09-19T22:35:00;13.2;99.9
49901;DHT22;35789;48.414;12.768;2023-09-19T22:40:00;13.2;99.9
49901;DHT22;35789;48.414;12.768;2023-09-19T22:45:00;13.1;99.9
49901;DHT22;35789;48.414;12.768;2023-09-19T22:50:00;13.2;99.9
49901;DHT22;35789;48.414;12.768;2023-09-19T22:55:00;13.1;99.9
49901;DHT22;35789;48.414;12.768;2023-09-19T23:00:00;13.1;99.9
49901;DHT22;35789;48.414;12.768;2023-09-19T23:05:00;13.0;99.9
49901;DHT22;35789;48.414;12.768;2023-09-19T23:10:00;13.0;99.9
49901;DHT22;35789;48.414;12.768;2023-09-19T23:15:00;12.9;99.9
49901;DHT22;35789;48.414;12.768;2023-09-19T23:20:00;13.0;99.9
49901;DHT22;35789;48.414;12.768;2023-09-19T23:25:00;13.0;99.9
49901;DHT22;35789;48.414;12.768;2023-09-19T23:30:00;12.9;99.9
49901;DHT22;35789;48.414;12.768;2023-09-19T23:35:00;12.8;99.9
49901;DHT22;35789;48.414;12.768;2023-09-19T23:40:00;12.8;99.9
49901;DHT22;35789;48.414;12.768;2023-09-19T23:45:00;12.7;99.9
49901;DHT22;35789;48.414;12.768;2023-09-19T23:50:00;12.7;99.9
49901;DHT22;35789;48.414;12.768;2023-09-19T23:55:00;12.6;99.9
